Time;durP1;ratioP1;P1;durP2;ratioP2;P2;SDS_P1;SDS_P2;PMS_P1;PMS_P2;Temp;Humidity;BMP_temperature;BMP_pressure;BME280_temperature;BME280_humidity;BME280_pressure;Samples;Min_cycle;Max_cycle;Signal;HPM_P1;HPM_P2
2021/09/01 00:00:06;;;;;;;10.65;8.35;;;;;;;;;;1891817;76;21026;-46
2021/09/01 00:02:36;;;;;;;9.25;7.60;;;;;;;;;;1891241;75;21099;-45
2021/09/01 00:05:06;;;;;;;20.02;8.60;;;;;;;;;;1891873;76;21100;-48
2021/09/01 00:07:34;;;;;;;37.42;9.03;;;;;;;;;;1892022;76;21088;-48
2021/09/01 00:10:04;;;;;;;12.88;8.13;;;;;;;;;;1891871;76;21135;-47
2021/09/01 00:12:33;;;;;;;11.73;7.83;;;;;;;;;;1892061;76;21089;-45
2021/09/01 00:15:02;;;;;;;10.10;7.55;;;;;;;;;;1891850;76;21324;-46
2021/09/01 00:17:30;;;;;;;10.78;7.87;;;;;;;;;;1891825;75;21039;-47
2021/09/01 00:19:59;;;;;;;12.03;8.03;;;;;;;;;;1891852;76;21038;-46
2021/09/01 00:22:28;;;;;;;10.82;7.90;;;;;;;;;;1891850;76;21050;-47
2021/09/01 00:24:57;;;;;;;15.68;8.48;;;;;;;;;;1891737;76;21045;-47
2021/09/01 00:27:26;;;;;;;9.48;8.03;;;;;;;;;;1891902;76;21034;-45
2021/09/01 00:29:55;;;;;;;13.10;7.75;;;;;;;;;;1891746;76;21100;-47
2021/09/01 00:32:24;;;;;;;9.28;7.78;;;;;;;;;;1891849;76;21081;-46
2021/09/01 00:34:53;;;;;;;9.58;8.40;;;;;;;;;;1891780;76;21023;-48
2021/09/01 00:37:21;;;;;;;10.53;7.30;;;;;;;;;;1892013;76;21034;-49
2021/09/01 00:39:50;;;;;;;13.78;8.08;;;;;;;;;;1891805;76;21104;-46
2021/09/01 00:42:19;;;;;;;10.72;7.83;;;;;;;;;;1891822;76;21080;-47
2021/09/01 00:44:48;;;;;;;12.23;8.08;;;;;;;;;;1891864;76;21002;-46
2021/09/01 00:47:21;;;;;;;8.15;7.28;;;;;;;;;;1891831;76;21030;-47
2021/09/01 00:49:51;;;;;;;9.83;7.53;;;;;;;;;;1891760;75;21038;-47
2021/09/01 00:52:21;;;;;;;11.28;7.58;;;;;;;;;;1891747;76;21097;-46
2021/09/01 00:54:50;;;;;;;12.45;7.67;;;;;;;;;;1891796;76;21026;-46
2021/09/01 00:57:19;;;;;;;10.40;7.70;;;;;;;;;;1891875;76;21002;-45
2021/09/01 00:59:48;;;;;;;9.83;7.50;;;;;;;;;;1891737;76;21125;-46
2021/09/01 01:02:17;;;;;;;10.05;7.20;;;;;;;;;;1891750;76;21078;-46
2021/09/01 01:04:46;;;;;;;12.50;7.87;;;;;;;;;;1891742;76;21038;-45
2021/09/01 01:07:14;;;;;;;9.88;7.72;;;;;;;;;;1891865;75;21080;-47
2021/09/01 01:09:47;;;;;;;14.28;7.45;;;;;;;;;;1891828;76;21062;-46
2021/09/01 01:12:14;;;;;;;8.93;7.45;;;;;;;;;;1891578;75;21151;-48
2021/09/01 01:14:44;;;;;;;10.43;7.53;;;;;;;;;;1891760;76;21159;-48
2021/09/01 01:17:14;;;;;;;10.23;7.35;;;;;;;;;;1889915;75;21084;-49
2021/09/01 01:19:43;;;;;;;10.65;8.68;;;;;;;;;;1891872;76;21131;-46
2021/09/01 01:22:16;;;;;;;11.20;7.70;;;;;;;;;;1891857;76;21092;-47
2021/09/01 01:25:01;;;;;;;9.00;7.05;;;;;;;;;;1891881;76;21445;-45
2021/09/01 01:27:37;;;;;;;11.08;7.47;;;;;;;;;;1891763;76;21054;-48
2021/09/01 01:30:07;;;;;;;11.80;8.70;;;;;;;;;;1891804;76;21456;-46
2021/09/01 01:32:36;;;;;;;12.80;8.15;;;;;;;;;;1891956;76;21057;-48
2021/09/01 01:35:06;;;;;;;11.10;8.33;;;;;;;;;;1891713;76;21035;-45
2021/09/01 01:37:34;;;;;;;14.93;8.20;;;;;;;;;;1891805;76;21030;-45
2021/09/01 01:40:04;;;;;;;12.35;8.00;;;;;;;;;;1891705;76;21042;-48
2021/09/01 01:42:34;;;;;;;11.50;7.42;;;;;;;;;;1891889;76;21081;-49
2021/09/01 01:45:02;;;;;;;11.48;7.33;;;;;;;;;;1891619;75;21022;-47
2021/09/01 01:47:31;;;;;;;8.45;7.28;;;;;;;;;;1891710;76;21097;-48
2021/09/01 01:50:00;;;;;;;9.08;7.10;;;;;;;;;;1891448;76;21030;-47
2021/09/01 01:52:28;;;;;;;9.70;7.25;;;;;;;;;;1891429;76;21006;-46
2021/09/01 01:54:57;;;;;;;9.33;7.03;;;;;;;;;;1891466;76;21038;-48
2021/09/01 01:57:26;;;;;;;8.48;6.95;;;;;;;;;;1891468;76;21096;-48
2021/09/01 01:59:55;;;;;;;8.05;6.95;;;;;;;;;;1891492;76;21054;-49
2021/09/01 02:02:30;;;;;;;11.38;7.22;;;;;;;;;;1891524;76;21070;-46
2021/09/01 02:04:54;;;;;;;10.50;7.72;;;;;;;;;;1890849;75;21551;-47
2021/09/01 02:07:23;;;;;;;8.45;7.03;;;;;;;;;;1891336;76;21038;-46
2021/09/01 02:09:51;;;;;;;10.53;8.18;;;;;;;;;;1891385;76;21018;-45
2021/09/01 02:12:20;;;;;;;10.55;7.22;;;;;;;;;;1891440;75;21027;-46
2021/09/01 02:14:49;;;;;;;16.52;9.63;;;;;;;;;;1891503;76;21015;-47
2021/09/01 02:17:18;;;;;;;11.68;7.78;;;;;;;;;;1891459;76;21026;-46
2021/09/01 02:19:47;;;;;;;10.78;6.37;;;;;;;;;;1891364;75;21101;-48
2021/09/01 02:22:16;;;;;;;8.95;7.22;;;;;;;;;;1891388;75;21034;-45
2021/09/01 02:24:44;;;;;;;11.97;6.72;;;;;;;;;;1891471;76;21100;-47
2021/09/01 02:27:13;;;;;;;9.65;6.75;;;;;;;;;;1891361;76;21108;-48
2021/09/01 02:29:42;;;;;;;8.53;7.12;;;;;;;;;;1891381;76;21100;-48
2021/09/01 02:32:11;;;;;;;14.25;7.40;;;;;;;;;;1891462;76;21109;-45
2021/09/01 02:34:40;;;;;;;16.93;8.50;;;;;;;;;;1891503;76;21030;-46
2021/09/01 02:37:09;;;;;;;16.48;10.70;;;;;;;;;;1891498;76;21160;-46
2021/09/01 02:39:37;;;;;;;10.53;7.47;;;;;;;;;;1891344;76;21018;-47
2021/09/01 02:42:06;;;;;;;11.63;8.23;;;;;;;;;;1891278;76;21034;-47
2021/09/01 02:44:35;;;;;;;8.88;6.60;;;;;;;;;;1891329;75;21034;-49
2021/09/01 02:47:05;;;;;;;12.98;7.00;;;;;;;;;;1891281;76;21074;-48
2021/09/01 02:49:34;;;;;;;9.78;7.10;;;;;;;;;;1883389;75;21120;-45
2021/09/01 02:52:03;;;;;;;12.45;7.30;;;;;;;;;;1872826;77;21051;-46
2021/09/01 02:54:31;;;;;;;11.90;7.20;;;;;;;;;;1872870;76;21080;-46
2021/09/01 02:57:00;;;;;;;9.40;6.40;;;;;;;;;;1872840;76;21015;-46
2021/09/01 02:59:29;;;;;;;9.10;6.97;;;;;;;;;;1872750;75;21093;-45
2021/09/01 03:01:58;;;;;;;10.40;6.92;;;;;;;;;;1872813;77;21019;-47
2021/09/01 03:04:27;;;;;;;9.70;6.50;;;;;;;;;;1872891;76;21105;-44
2021/09/01 03:06:56;;;;;;;8.88;6.58;;;;;;;;;;1872715;75;21023;-45
2021/09/01 03:09:24;;;;;;;7.87;6.35;;;;;;;;;;1872746;77;21086;-46
2021/09/01 03:11:53;;;;;;;8.28;6.45;;;;;;;;;;1872759;77;21105;-47
2021/09/01 03:14:22;;;;;;;12.18;7.58;;;;;;;;;;1872790;76;21039;-47
2021/09/01 03:16:51;;;;;;;13.38;7.60;;;;;;;;;;1872781;75;21093;-45
2021/09/01 03:19:20;;;;;;;8.93;6.40;;;;;;;;;;1872758;76;21035;-47
2021/09/01 03:21:49;;;;;;;16.17;7.45;;;;;;;;;;1872707;77;21136;-49
2021/09/01 03:24:18;;;;;;;7.83;5.83;;;;;;;;;;1872777;75;21164;-46
2021/09/01 03:26:47;;;;;;;8.90;7.08;;;;;;;;;;1872820;76;21031;-45
2021/09/01 03:29:16;;;;;;;9.05;6.28;;;;;;;;;;1872762;77;21039;-47
2021/09/01 03:31:44;;;;;;;11.88;9.48;;;;;;;;;;1872889;76;21075;-49
2021/09/01 03:34:14;;;;;;;10.58;6.95;;;;;;;;;;1872806;77;21019;-48
2021/09/01 03:36:43;;;;;;;10.50;6.30;;;;;;;;;;1872857;77;21109;-46
2021/09/01 03:39:12;;;;;;;17.05;9.23;;;;;;;;;;1872785;76;21043;-46
2021/09/01 03:41:40;;;;;;;7.00;6.25;;;;;;;;;;1872781;75;21098;-45
2021/09/01 03:44:09;;;;;;;8.08;6.85;;;;;;;;;;1872718;77;21039;-46
2021/09/01 03:46:38;;;;;;;11.90;6.25;;;;;;;;;;1872926;76;21039;-47
2021/09/01 03:49:07;;;;;;;13.40;7.50;;;;;;;;;;1873935;75;21116;-45
2021/09/01 03:51:36;;;;;;;8.73;6.45;;;;;;;;;;1891895;76;20998;-48
2021/09/01 03:54:05;;;;;;;12.70;7.70;;;;;;;;;;1891958;76;21091;-45
2021/09/01 03:56:34;;;;;;;9.43;7.22;;;;;;;;;;1891998;76;21050;-46
2021/09/01 03:59:02;;;;;;;13.35;7.03;;;;;;;;;;1891814;75;21026;-45
2021/09/01 04:01:32;;;;;;;10.50;6.62;;;;;;;;;;1891755;76;21038;-49
2021/09/01 04:04:02;;;;;;;11.45;7.12;;;;;;;;;;1891739;76;21576;-49
2021/09/01 04:06:30;;;;;;;8.35;6.50;;;;;;;;;;1891703;75;21104;-49
2021/09/01 04:09:00;;;;;;;10.68;6.92;;;;;;;;;;1891810;76;21026;-46
2021/09/01 04:11:28;;;;;;;14.10;7.53;;;;;;;;;;1891855;76;21022;-47
2021/09/01 04:13:57;;;;;;;12.58;7.05;;;;;;;;;;1891811;76;21015;-49
2021/09/01 04:16:26;;;;;;;8.85;7.28;;;;;;;;;;1891800;76;21096;-46
2021/09/01 04:18:54;;;;;;;11.40;7.28;;;;;;;;;;1891720;76;21100;-45
2021/09/01 04:21:23;;;;;;;12.23;7.00;;;;;;;;;;1891772;76;21022;-46
2021/09/01 04:23:52;;;;;;;12.37;8.58;;;;;;;;;;1891802;75;21152;-47
2021/09/01 04:26:20;;;;;;;13.60;7.72;;;;;;;;;;1891672;76;21088;-48
2021/09/01 04:28:49;;;;;;;15.28;8.15;;;;;;;;;;1891706;76;21002;-46
2021/09/01 04:31:18;;;;;;;13.65;6.55;;;;;;;;;;1891857;76;21088;-47
2021/09/01 04:33:46;;;;;;;11.08;7.28;;;;;;;;;;1891856;76;21120;-48
2021/09/01 04:36:15;;;;;;;9.23;7.37;;;;;;;;;;1891861;75;21077;-47
2021/09/01 04:38:44;;;;;;;12.55;8.38;;;;;;;;;;1891757;76;21092;-48
2021/09/01 04:41:13;;;;;;;11.85;8.48;;;;;;;;;;1891825;75;21054;-45
2021/09/01 04:43:41;;;;;;;18.10;7.60;;;;;;;;;;1891676;76;21105;-45
2021/09/01 04:46:10;;;;;;;24.15;8.35;;;;;;;;;;1891963;76;21031;-47
2021/09/01 04:48:39;;;;;;;10.55;7.37;;;;;;;;;;1891866;75;21018;-47
2021/09/01 04:51:08;;;;;;;13.38;7.20;;;;;;;;;;1891631;76;21066;-45
2021/09/01 04:53:37;;;;;;;10.70;7.22;;;;;;;;;;1891529;76;21027;-46
2021/09/01 04:56:05;;;;;;;13.00;7.30;;;;;;;;;;1891551;76;21026;-47
2021/09/01 04:58:34;;;;;;;16.15;8.63;;;;;;;;;;1891565;76;21410;-47
2021/09/01 05:01:03;;;;;;;14.05;7.60;;;;;;;;;;1891688;76;21022;-47
2021/09/01 05:03:31;;;;;;;13.18;8.90;;;;;;;;;;1891405;76;21027;-46
2021/09/01 05:06:00;;;;;;;17.60;9.43;;;;;;;;;;1890244;76;21160;-46
2021/09/01 05:08:29;;;;;;;12.65;9.43;;;;;;;;;;1890222;76;21105;-49
2021/09/01 05:10:58;;;;;;;17.52;9.10;;;;;;;;;;1890763;76;21018;-46
2021/09/01 05:13:27;;;;;;;22.48;8.43;;;;;;;;;;1891340;76;21027;-45
2021/09/01 05:15:56;;;;;;;15.28;9.35;;;;;;;;;;1891461;75;21034;-46
2021/09/01 05:18:25;;;;;;;19.45;9.15;;;;;;;;;;1891514;76;21073;-46
2021/09/01 05:20:55;;;;;;;19.87;11.38;;;;;;;;;;1891415;76;21059;-45
2021/09/01 05:23:24;;;;;;;17.55;9.48;;;;;;;;;;1891424;75;21170;-47
2021/09/01 05:25:57;;;;;;;19.75;9.03;;;;;;;;;;1891290;76;21097;-45
2021/09/01 05:28:27;;;;;;;14.23;9.03;;;;;;;;;;1891334;76;21054;-46
2021/09/01 05:30:56;;;;;;;14.10;7.87;;;;;;;;;;1891488;76;21073;-48
2021/09/01 05:33:25;;;;;;;20.43;10.35;;;;;;;;;;1891305;76;21082;-46
2021/09/01 05:35:54;;;;;;;20.65;12.18;;;;;;;;;;1891290;76;21100;-46
2021/09/01 05:38:22;;;;;;;24.07;14.03;;;;;;;;;;1891381;76;21096;-46
2021/09/01 05:40:52;;;;;;;24.15;13.62;;;;;;;;;;1891457;76;21026;-47
2021/09/01 05:43:22;;;;;;;44.08;21.37;;;;;;;;;;1891300;76;21094;-46
2021/09/01 05:45:51;;;;;;;39.67;24.12;;;;;;;;;;1891473;76;21065;-47
2021/09/01 05:48:20;;;;;;;48.85;27.32;;;;;;;;;;1891342;75;21089;-47
2021/09/01 05:50:53;;;;;;;42.17;24.95;;;;;;;;;;1891441;75;21070;-47
2021/09/01 05:53:22;;;;;;;36.23;17.77;;;;;;;;;;1891508;76;21076;-48
2021/09/01 05:55:52;;;;;;;28.77;14.78;;;;;;;;;;1891432;76;21034;-47
2021/09/01 05:58:21;;;;;;;28.02;10.88;;;;;;;;;;1891513;76;21022;-49
2021/09/01 06:00:53;;;;;;;20.25;10.50;;;;;;;;;;1891321;76;21121;-46
2021/09/01 06:03:26;;;;;;;23.27;12.13;;;;;;;;;;1891378;76;21096;-46
2021/09/01 06:05:56;;;;;;;19.37;13.50;;;;;;;;;;1891491;75;21058;-47
2021/09/01 06:08:25;;;;;;;15.65;10.00;;;;;;;;;;1891538;76;21085;-46
2021/09/01 06:10:55;;;;;;;13.72;9.58;;;;;;;;;;1891486;76;21022;-49
2021/09/01 06:13:23;;;;;;;17.15;9.33;;;;;;;;;;1891450;76;21085;-47
2021/09/01 06:15:52;;;;;;;16.23;8.23;;;;;;;;;;1891384;76;21096;-49
2021/09/01 06:18:21;;;;;;;12.30;7.47;;;;;;;;;;1891438;76;21105;-47
2021/09/01 06:20:50;;;;;;;13.40;7.25;;;;;;;;;;1891454;76;21042;-45
2021/09/01 06:23:19;;;;;;;10.58;7.03;;;;;;;;;;1891388;76;21038;-49
2021/09/01 06:25:48;;;;;;;16.10;7.75;;;;;;;;;;1891543;76;21104;-46
2021/09/01 06:28:17;;;;;;;21.62;6.58;;;;;;;;;;1891569;76;21101;-49
2021/09/01 06:30:46;;;;;;;12.70;6.15;;;;;;;;;;1891496;76;21046;-47
2021/09/01 06:33:14;;;;;;;12.65;6.72;;;;;;;;;;1891565;76;21054;-48
2021/09/01 06:35:43;;;;;;;15.65;5.85;;;;;;;;;;1891489;76;21030;-48
2021/09/01 06:38:12;;;;;;;16.82;6.15;;;;;;;;;;1891560;76;21097;-45
2021/09/01 06:40:41;;;;;;;9.95;5.87;;;;;;;;;;1891452;76;21101;-48
2021/09/01 06:43:12;;;;;;;12.80;6.50;;;;;;;;;;1891436;75;21042;-48
2021/09/01 06:45:41;;;;;;;11.57;6.75;;;;;;;;;;1891544;76;21484;-49
2021/09/01 06:48:10;;;;;;;14.80;6.33;;;;;;;;;;1891560;76;21465;-49
2021/09/01 06:50:40;;;;;;;13.80;6.75;;;;;;;;;;1889577;76;21582;-45
2021/09/01 06:53:09;;;;;;;12.78;7.47;;;;;;;;;;1872734;76;21023;-48
2021/09/01 06:55:38;;;;;;;17.12;8.25;;;;;;;;;;1872820;77;21077;-49
2021/09/01 06:58:08;;;;;;;15.38;7.25;;;;;;;;;;1872637;77;21114;-46
2021/09/01 07:00:36;;;;;;;12.80;7.87;;;;;;;;;;1867354;76;21023;-49
2021/09/01 07:03:05;;;;;;;13.88;7.28;;;;;;;;;;1872689;75;21128;-45
2021/09/01 07:05:34;;;;;;;14.65;8.20;;;;;;;;;;1872703;77;21035;-46
2021/09/01 07:08:04;;;;;;;14.95;8.70;;;;;;;;;;1872731;76;21092;-46
2021/09/01 07:10:33;;;;;;;22.77;10.78;;;;;;;;;;1871287;76;21430;-46
2021/09/01 07:13:02;;;;;;;16.45;9.93;;;;;;;;;;1870790;75;21003;-46
2021/09/01 07:15:30;;;;;;;16.17;10.72;;;;;;;;;;1874278;75;21092;-46
2021/09/01 07:17:59;;;;;;;19.50;11.10;;;;;;;;;;1872331;75;21033;-45
2021/09/01 07:20:28;;;;;;;19.27;12.07;;;;;;;;;;1872593;75;21080;-48
2021/09/01 07:22:57;;;;;;;15.15;8.10;;;;;;;;;;1872548;76;21547;-47
2021/09/01 07:25:26;;;;;;;9.60;6.17;;;;;;;;;;1872493;75;21042;-49
2021/09/01 07:27:54;;;;;;;7.70;4.80;;;;;;;;;;1871212;75;21337;-48
2021/09/01 07:30:31;;;;;;;7.90;5.42;;;;;;;;;;1872271;75;21080;-46
2021/09/01 07:33:07;;;;;;;9.95;6.00;;;;;;;;;;1871198;76;21175;-47
2021/09/01 07:35:45;;;;;;;7.53;6.03;;;;;;;;;;1872331;75;21010;-49
2021/09/01 07:38:19;;;;;;;15.65;6.05;;;;;;;;;;1870504;77;21542;-48
2021/09/01 07:40:59;;;;;;;7.85;4.75;;;;;;;;;;1866877;76;21502;-48
2021/09/01 07:43:38;;;;;;;27.50;11.75;;;;;;;;;;1871281;75;21626;-50
2021/09/01 07:46:18;;;;;;;11.38;5.75;;;;;;;;;;1871220;76;21097;-48
2021/09/01 07:48:47;;;;;;;13.35;5.67;;;;;;;;;;1870938;76;21148;-50
2021/09/01 07:51:16;;;;;;;10.95;7.40;;;;;;;;;;1872039;75;21140;-50
2021/09/01 07:53:47;;;;;;;11.75;5.90;;;;;;;;;;1872375;75;21097;-50
2021/09/01 07:56:15;;;;;;;12.98;6.12;;;;;;;;;;1872204;75;21147;-47
2021/09/01 07:58:44;;;;;;;15.65;6.03;;;;;;;;;;1872449;75;21193;-50
2021/09/01 08:01:13;;;;;;;8.83;4.95;;;;;;;;;;1872389;76;21045;-48
2021/09/01 08:03:42;;;;;;;8.63;4.85;;;;;;;;;;1871962;75;21030;-48
2021/09/01 08:06:10;;;;;;;10.65;6.33;;;;;;;;;;1872640;75;21101;-50
2021/09/01 08:08:39;;;;;;;7.33;5.05;;;;;;;;;;1872470;75;21091;-49
2021/09/01 08:11:10;;;;;;;9.30;4.45;;;;;;;;;;1871653;77;21108;-49
2021/09/01 08:13:39;;;;;;;7.53;4.72;;;;;;;;;;1870958;77;21076;-51
2021/09/01 08:16:09;;;;;;;8.53;4.40;;;;;;;;;;1871063;75;21078;-50
2021/09/01 08:18:38;;;;;;;6.92;4.15;;;;;;;;;;1871532;75;21088;-52
2021/09/01 08:21:06;;;;;;;6.47;4.12;;;;;;;;;;1872000;75;21085;-52
2021/09/01 08:23:35;;;;;;;7.80;4.08;;;;;;;;;;1871641;76;21151;-53
2021/09/01 08:26:05;;;;;;;7.62;4.53;;;;;;;;;;1905536;75;21050;-53
2021/09/01 08:28:33;;;;;;;13.03;8.38;;;;;;;;;;1913697;74;21137;-49
2021/09/01 08:31:02;;;;;;;9.40;6.40;;;;;;;;;;1913482;75;21526;-52
2021/09/01 08:33:31;;;;;;;13.98;4.65;;;;;;;;;;1913663;75;20998;-52
2021/09/01 08:36:00;;;;;;;8.28;5.12;;;;;;;;;;1913519;75;21026;-51
2021/09/01 08:38:29;;;;;;;7.95;4.30;;;;;;;;;;1913708;75;21005;-51
2021/09/01 08:40:57;;;;;;;8.38;4.67;;;;;;;;;;1913684;74;21077;-52
2021/09/01 08:43:26;;;;;;;11.80;5.53;;;;;;;;;;1913743;74;21074;-50
2021/09/01 08:45:55;;;;;;;7.55;4.25;;;;;;;;;;1913580;74;21057;-53
2021/09/01 08:48:25;;;;;;;6.45;5.08;;;;;;;;;;1913681;75;21002;-55
2021/09/01 08:50:54;;;;;;;7.78;4.50;;;;;;;;;;1913824;75;21077;-53
2021/09/01 08:53:23;;;;;;;11.22;5.53;;;;;;;;;;1913379;74;21166;-53
2021/09/01 08:55:52;;;;;;;7.30;4.95;;;;;;;;;;1913615;74;21053;-51
2021/09/01 08:58:21;;;;;;;8.00;4.90;;;;;;;;;;1913781;75;21038;-52
2021/09/01 09:00:50;;;;;;;18.73;5.65;;;;;;;;;;1913795;74;21023;-53
2021/09/01 09:03:18;;;;;;;11.03;5.62;;;;;;;;;;1913943;75;21006;-51
2021/09/01 09:05:48;;;;;;;10.63;6.05;;;;;;;;;;1913584;75;21123;-52
2021/09/01 09:08:16;;;;;;;13.65;6.28;;;;;;;;;;1913593;75;21119;-54
2021/09/01 09:10:46;;;;;;;9.80;6.10;;;;;;;;;;1913920;74;21050;-55
2021/09/01 09:13:16;;;;;;;9.20;5.87;;;;;;;;;;1913909;75;21033;-53
2021/09/01 09:15:46;;;;;;;10.93;6.35;;;;;;;;;;1913532;75;21041;-50
2021/09/01 09:18:28;;;;;;;12.10;7.05;;;;;;;;;;1909839;75;21075;-54
2021/09/01 09:21:13;;;;;;;16.27;6.37;;;;;;;;;;1913973;75;21119;-55
2021/09/01 09:23:42;;;;;;;13.45;6.87;;;;;;;;;;1913802;75;21441;-55
2021/09/01 09:26:31;;;;;;;10.82;6.87;;;;;;;;;;1913939;74;21025;-54
2021/09/01 09:29:07;;;;;;;8.10;6.47;;;;;;;;;;1913493;74;21038;-52
2021/09/01 09:31:36;;;;;;;9.38;6.00;;;;;;;;;;1913909;75;21124;-52
2021/09/01 09:34:13;;;;;;;15.08;6.00;;;;;;;;;;1913778;74;21112;-54
2021/09/01 09:36:44;;;;;;;17.75;8.00;;;;;;;;;;1912729;75;21083;-53
2021/09/01 09:39:13;;;;;;;18.82;8.95;;;;;;;;;;1909867;74;21041;-55
2021/09/01 09:41:42;;;;;;;11.20;5.58;;;;;;;;;;1912318;74;21304;-55
2021/09/01 09:44:12;;;;;;;7.90;5.10;;;;;;;;;;1913268;75;21014;-54
2021/09/01 09:46:48;;;;;;;9.95;5.33;;;;;;;;;;1913441;75;21022;-51
2021/09/01 09:49:17;;;;;;;12.55;6.15;;;;;;;;;;1913647;75;21021;-55
2021/09/01 09:51:46;;;;;;;6.95;5.03;;;;;;;;;;1913410;74;21081;-55
2021/09/01 09:54:24;;;;;;;8.68;5.65;;;;;;;;;;1923759;74;21125;-53
2021/09/01 09:57:08;;;;;;;11.53;5.70;;;;;;;;;;1922831;74;21022;-55
2021/09/01 09:59:37;;;;;;;7.35;5.15;;;;;;;;;;1903809;74;21095;-53
2021/09/01 10:02:06;;;;;;;14.43;5.50;;;;;;;;;;1890670;74;21177;-54
2021/09/01 10:04:35;;;;;;;9.68;5.10;;;;;;;;;;1890665;76;21084;-51
2021/09/01 10:07:04;;;;;;;12.23;5.72;;;;;;;;;;1889656;74;21019;-54
2021/09/01 10:09:33;;;;;;;10.60;4.92;;;;;;;;;;1890304;76;21086;-52
2021/09/01 10:12:02;;;;;;;10.08;4.58;;;;;;;;;;1890604;75;21317;-55
2021/09/01 10:14:31;;;;;;;10.20;5.62;;;;;;;;;;1890594;76;21086;-55
2021/09/01 10:17:04;;;;;;;7.83;5.17;;;;;;;;;;1890271;76;21086;-51
2021/09/01 10:19:35;;;;;;;10.30;7.92;;;;;;;;;;1890201;75;21075;-53
2021/09/01 10:22:05;;;;;;;17.20;8.18;;;;;;;;;;1890398;76;21157;-54
2021/09/01 10:24:35;;;;;;;17.42;14.03;;;;;;;;;;1890402;74;21020;-55
2021/09/01 10:27:05;;;;;;;10.98;6.78;;;;;;;;;;1890420;74;21094;-55
2021/09/01 10:29:39;;;;;;;11.00;5.97;;;;;;;;;;1890298;76;21099;-56
2021/09/01 10:32:18;;;;;;;9.98;5.53;;;;;;;;;;1889918;75;21651;-54
2021/09/01 10:34:47;;;;;;;9.35;5.78;;;;;;;;;;1890610;76;21068;-57
2021/09/01 10:37:25;;;;;;;7.08;4.72;;;;;;;;;;1907139;74;21081;-54
2021/09/01 10:39:54;;;;;;;8.15;4.60;;;;;;;;;;1896752;74;21065;-53
2021/09/01 10:42:39;;;;;;;7.40;4.97;;;;;;;;;;1906654;74;21028;-55
2021/09/01 10:45:09;;;;;;;15.93;5.40;;;;;;;;;;1907461;74;21399;-57
2021/09/01 10:47:52;;;;;;;20.43;14.50;;;;;;;;;;1907919;74;21015;-59
2021/09/01 10:50:37;;;;;;;10.65;5.03;;;;;;;;;;1918930;74;21127;-54
2021/09/01 10:53:08;;;;;;;8.68;4.70;;;;;;;;;;1923510;74;21682;-55
2021/09/01 10:55:56;;;;;;;9.23;4.85;;;;;;;;;;1921868;74;21449;-56
2021/09/01 10:58:27;;;;;;;12.98;5.67;;;;;;;;;;1888369;76;21090;-55
2021/09/01 11:00:57;;;;;;;11.78;6.03;;;;;;;;;;1889159;75;21094;-55
2021/09/01 11:03:27;;;;;;;8.30;4.67;;;;;;;;;;1889414;75;21187;-54
2021/09/01 11:05:56;;;;;;;8.60;4.83;;;;;;;;;;1889850;75;21175;-55
2021/09/01 11:08:25;;;;;;;14.28;5.22;;;;;;;;;;1890824;76;21085;-53
2021/09/01 11:10:57;;;;;;;6.65;4.75;;;;;;;;;;1890589;76;21096;-52
2021/09/01 11:13:36;;;;;;;9.90;5.08;;;;;;;;;;1890526;76;21133;-51
2021/09/01 11:16:06;;;;;;;10.30;5.47;;;;;;;;;;1860068;76;21006;-51
2021/09/01 11:18:35;;;;;;;10.15;5.20;;;;;;;;;;1889107;75;21054;-51
2021/09/01 11:21:05;;;;;;;10.82;5.40;;;;;;;;;;1890619;76;21030;-52
2021/09/01 11:23:34;;;;;;;7.70;5.47;;;;;;;;;;1890588;76;21167;-53
2021/09/01 11:26:04;;;;;;;9.70;4.95;;;;;;;;;;1890626;76;21066;-50
2021/09/01 11:28:34;;;;;;;5.92;4.87;;;;;;;;;;1890654;76;21026;-51
2021/09/01 11:31:02;;;;;;;14.18;5.45;;;;;;;;;;1890568;76;21078;-46
2021/09/01 11:33:32;;;;;;;9.53;6.65;;;;;;;;;;1891152;75;21077;-46
2021/09/01 11:36:01;;;;;;;7.05;5.60;;;;;;;;;;1890373;75;21050;-50
2021/09/01 11:38:30;;;;;;;7.58;5.37;;;;;;;;;;1891249;76;21018;-51
2021/09/01 11:40:59;;;;;;;11.08;6.72;;;;;;;;;;1891293;76;21034;-50
2021/09/01 11:43:28;;;;;;;8.58;5.10;;;;;;;;;;1891187;75;21034;-50
2021/09/01 11:45:58;;;;;;;7.45;5.12;;;;;;;;;;1891241;76;21038;-51
2021/09/01 11:48:28;;;;;;;10.20;5.30;;;;;;;;;;1891341;76;21132;-51
2021/09/01 11:50:57;;;;;;;9.58;6.15;;;;;;;;;;1890040;75;21073;-50
2021/09/01 11:53:26;;;;;;;7.53;5.20;;;;;;;;;;1891147;76;21058;-50
2021/09/01 11:55:55;;;;;;;12.73;6.15;;;;;;;;;;1891313;76;21010;-49
2021/09/01 11:58:24;;;;;;;12.93;5.75;;;;;;;;;;1891468;76;21018;-49
2021/09/01 12:00:57;;;;;;;12.10;5.62;;;;;;;;;;1890199;76;21066;-49
2021/09/01 12:03:22;;;;;;;11.08;5.95;;;;;;;;;;1890163;75;21548;-52
2021/09/01 12:05:52;;;;;;;6.20;5.10;;;;;;;;;;1890924;76;21049;-51
2021/09/01 12:08:21;;;;;;;8.55;5.05;;;;;;;;;;1890008;75;21050;-50
2021/09/01 12:10:50;;;;;;;6.40;5.65;;;;;;;;;;1891385;76;21104;-49
2021/09/01 12:13:19;;;;;;;9.48;6.12;;;;;;;;;;1891502;76;21034;-51
2021/09/01 12:15:58;;;;;;;8.08;5.30;;;;;;;;;;1891391;76;21101;-50
2021/09/01 12:18:27;;;;;;;5.62;4.60;;;;;;;;;;1913685;74;21070;-51
2021/09/01 12:20:56;;;;;;;6.80;4.67;;;;;;;;;;1923454;74;21026;-49
2021/09/01 12:23:25;;;;;;;6.42;4.65;;;;;;;;;;1924505;74;21082;-49
2021/09/01 12:25:55;;;;;;;8.08;4.95;;;;;;;;;;1924481;74;21023;-51
2021/09/01 12:28:24;;;;;;;11.90;5.10;;;;;;;;;;1923646;74;21046;-49
2021/09/01 12:30:53;;;;;;;6.75;4.97;;;;;;;;;;1924617;74;21104;-51
2021/09/01 12:33:22;;;;;;;8.35;5.22;;;;;;;;;;1924677;74;21030;-50
2021/09/01 12:36:00;;;;;;;13.10;6.00;;;;;;;;;;1923267;74;21014;-51
2021/09/01 12:38:29;;;;;;;11.35;5.85;;;;;;;;;;1924542;74;21010;-51
2021/09/01 12:40:58;;;;;;;13.60;5.78;;;;;;;;;;1923225;74;21357;-51
2021/09/01 12:43:26;;;;;;;7.35;5.08;;;;;;;;;;1923681;74;21058;-52
2021/09/01 12:46:01;;;;;;;8.68;5.15;;;;;;;;;;1924487;74;20975;-51
2021/09/01 12:48:34;;;;;;;6.45;5.05;;;;;;;;;;1924719;74;21011;-51
2021/09/01 12:51:02;;;;;;;13.62;5.72;;;;;;;;;;1924578;74;21027;-50
2021/09/01 12:53:32;;;;;;;10.35;5.00;;;;;;;;;;1924651;74;21027;-51
2021/09/01 12:56:02;;;;;;;9.10;4.87;;;;;;;;;;1924641;74;21080;-50
2021/09/01 12:58:30;;;;;;;6.97;5.33;;;;;;;;;;1924857;74;21010;-50
2021/09/01 13:00:59;;;;;;;8.25;4.53;;;;;;;;;;1924647;74;21077;-51
2021/09/01 13:03:28;;;;;;;7.85;5.35;;;;;;;;;;1924652;74;21018;-51
2021/09/01 13:05:56;;;;;;;8.43;5.45;;;;;;;;;;1924511;74;21226;-51
2021/09/01 13:08:26;;;;;;;7.15;4.87;;;;;;;;;;1924648;74;21027;-51
2021/09/01 13:10:55;;;;;;;7.97;5.65;;;;;;;;;;1924742;74;21078;-49
2021/09/01 13:13:23;;;;;;;9.15;5.00;;;;;;;;;;1924574;74;21120;-51
2021/09/01 13:15:52;;;;;;;10.25;5.80;;;;;;;;;;1924551;74;21026;-47
2021/09/01 13:18:21;;;;;;;7.25;5.15;;;;;;;;;;1924541;74;21023;-51
2021/09/01 13:20:54;;;;;;;9.78;6.92;;;;;;;;;;1924645;74;21031;-47
2021/09/01 13:23:21;;;;;;;9.93;4.95;;;;;;;;;;1924193;74;21484;-51
2021/09/01 13:25:49;;;;;;;8.63;5.08;;;;;;;;;;1924603;74;21031;-48
2021/09/01 13:28:18;;;;;;;12.13;6.12;;;;;;;;;;1924639;74;20995;-51
2021/09/01 13:30:47;;;;;;;13.70;5.83;;;;;;;;;;1924525;74;21078;-50
2021/09/01 13:33:16;;;;;;;11.50;6.15;;;;;;;;;;1924510;74;21034;-52
2021/09/01 13:35:45;;;;;;;10.08;6.00;;;;;;;;;;1924566;74;21030;-51
2021/09/01 13:38:14;;;;;;;11.78;6.05;;;;;;;;;;1924571;74;21097;-52
2021/09/01 13:40:43;;;;;;;18.48;7.00;;;;;;;;;;1924521;74;21027;-51
2021/09/01 13:43:11;;;;;;;9.73;5.85;;;;;;;;;;1924493;74;21026;-52
2021/09/01 13:45:42;;;;;;;14.38;6.50;;;;;;;;;;1924506;74;21039;-51
2021/09/01 13:48:12;;;;;;;13.25;6.90;;;;;;;;;;1924484;74;21516;-52
2021/09/01 13:50:41;;;;;;;16.85;6.83;;;;;;;;;;1923610;74;21077;-49
2021/09/01 13:53:10;;;;;;;16.12;6.97;;;;;;;;;;1923421;74;21085;-49
2021/09/01 13:55:39;;;;;;;12.05;6.90;;;;;;;;;;1906566;74;21099;-49
2021/09/01 13:58:08;;;;;;;17.98;7.30;;;;;;;;;;1901944;75;21019;-51
2021/09/01 14:00:37;;;;;;;15.93;7.87;;;;;;;;;;1904702;75;21070;-49
2021/09/01 14:03:13;;;;;;;16.17;8.18;;;;;;;;;;1902812;75;21022;-51
2021/09/01 14:05:42;;;;;;;17.82;7.37;;;;;;;;;;1875730;75;21050;-49
2021/09/01 14:08:12;;;;;;;19.07;6.45;;;;;;;;;;1872522;77;21035;-50
2021/09/01 14:10:41;;;;;;;11.15;5.80;;;;;;;;;;1872412;76;21023;-51
2021/09/01 14:13:10;;;;;;;15.23;7.22;;;;;;;;;;1872519;76;21093;-48
2021/09/01 14:15:38;;;;;;;10.18;5.62;;;;;;;;;;1872429;75;21093;-50
2021/09/01 14:18:08;;;;;;;8.38;5.55;;;;;;;;;;1881936;75;21074;-51
2021/09/01 14:20:39;;;;;;;12.80;5.75;;;;;;;;;;1904597;74;21074;-52
2021/09/01 14:23:09;;;;;;;14.23;6.22;;;;;;;;;;1881377;75;21556;-49
2021/09/01 14:25:38;;;;;;;12.90;6.28;;;;;;;;;;1872112;76;21062;-48
2021/09/01 14:28:07;;;;;;;12.68;6.33;;;;;;;;;;1872221;76;21058;-52
2021/09/01 14:30:37;;;;;;;12.43;6.30;;;;;;;;;;1871587;77;21106;-53
2021/09/01 14:33:06;;;;;;;26.68;7.08;;;;;;;;;;1872271;77;21077;-50
2021/09/01 14:35:35;;;;;;;13.80;6.12;;;;;;;;;;1872348;77;21039;-51
2021/09/01 14:38:05;;;;;;;12.45;6.08;;;;;;;;;;1872306;77;21035;-50
2021/09/01 14:40:33;;;;;;;10.40;6.35;;;;;;;;;;1872296;75;21023;-52
2021/09/01 14:43:03;;;;;;;13.58;6.15;;;;;;;;;;1872377;77;21019;-52
2021/09/01 14:45:32;;;;;;;20.97;7.12;;;;;;;;;;1871468;76;21059;-53
2021/09/01 14:48:01;;;;;;;16.25;6.78;;;;;;;;;;1872461;77;21039;-52